Tillman, Indiana
Current Conditions -  °F | °C
As of 8:54 AM on Friday 24 Oct 2014 (Local Time) from KFWA Reporting Station
Broken Clouds Broken Clouds  
Wind Chill:   Ceiling: 9500
Heat Index:   Visibility: 8mi
Dew Point:   Wind: 6mph
Humidity: 86%   Direction: 220°SW
Pressure: 30.11"   Gusts: NA
Location:  40.9863°N, 84.8797°W
Report Text: KFWA 241254Z 22005KT 8SM SCT070 BKN095 07/05 A3011 RMK AO2 SLP199 T00720050
Loading
Personal Weather Stations






























Interactive Weather Map
Tropical Storm Tracking
New forecast layout! Learn more

10-Day Weather Forecast

Advertisements
Track Severe Weather on mobile